Time;durP1;ratioP1;P1;durP2;ratioP2;P2;SDS_P1;SDS_P2;PMS_P1;PMS_P2;Temp;Humidity;BMP_temperature;BMP_pressure;BME280_temperature;BME280_humidity;BME280_pressure;Samples;Min_cycle;Max_cycle;Signal;HPM_P1;HPM_P2
2023/05/03 00:02:20;;;;;;;2.97;1.07;;;8.00;92.40;;;;;;6183962;23;20092;-72
2023/05/03 00:04:46;;;;;;;4.00;1.10;;;8.00;92.40;;;;;;6211483;23;20004;-72
2023/05/03 00:07:12;;;;;;;6.23;1.13;;;8.00;92.40;;;;;;6211105;23;20084;-72
2023/05/03 00:09:38;;;;;;;4.93;1.10;;;8.00;92.40;;;;;;6211857;23;20356;-72
2023/05/03 00:12:04;;;;;;;3.23;1.07;;;7.80;92.30;;;;;;6211744;23;20275;-72
2023/05/03 00:14:30;;;;;;;3.17;0.90;;;7.90;92.30;;;;;;6184450;23;20027;-72
2023/05/03 00:16:56;;;;;;;2.30;1.00;;;7.90;92.40;;;;;;6184526;23;20091;-72
2023/05/03 00:19:25;;;;;;;6.63;1.20;;;7.90;92.30;;;;;;6211057;23;19997;-72
2023/05/03 00:21:51;;;;;;;2.90;0.80;;;7.80;92.30;;;;;;6211537;23;20000;-72
2023/05/03 00:24:17;;;;;;;3.33;1.30;;;7.80;92.20;;;;;;6184244;23;20430;-72
2023/05/03 00:26:43;;;;;;;4.13;0.90;;;7.80;92.20;;;;;;6211946;23;20072;-72
2023/05/03 00:29:08;;;;;;;2.47;1.05;;;7.80;92.20;;;;;;6211135;23;20067;-72
2023/05/03 00:31:34;;;;;;;6.50;1.30;;;7.80;92.20;;;;;;6210924;23;20028;-72
2023/05/03 00:33:59;;;;;;;2.20;0.70;;;7.80;92.20;;;;;;6211466;23;20036;-72
2023/05/03 00:36:26;;;;;;;2.07;0.60;;;7.70;92.20;;;;;;6210556;23;20065;-72
2023/05/03 00:38:52;;;;;;;2.73;0.70;;;7.70;92.20;;;;;;6211479;23;20505;-72
2023/05/03 00:41:18;;;;;;;3.80;0.70;;;7.70;92.20;;;;;;6210730;23;20016;-72
2023/05/03 00:43:44;;;;;;;6.27;0.70;;;7.70;92.20;;;;;;6210988;23;20008;-72
2023/05/03 00:46:10;;;;;;;6.23;0.90;;;7.70;92.20;;;;;;6210500;23;20035;-72
2023/05/03 00:48:36;;;;;;;3.70;0.67;;;7.70;92.30;;;;;;6211320;23;20058;-72
2023/05/03 00:51:04;;;;;;;5.23;1.27;;;7.70;92.30;;;;;;6211440;23;20264;-72
2023/05/03 00:53:30;;;;;;;3.90;1.37;;;7.60;92.40;;;;;;6210767;23;20433;-72
2023/05/03 00:55:59;;;;;;;9.23;1.17;;;7.60;92.50;;;;;;6211398;23;20005;-72
2023/05/03 00:58:25;;;;;;;2.07;1.00;;;7.60;92.60;;;;;;6210659;23;20003;-72
2023/05/03 01:00:51;;;;;;;9.33;0.93;;;7.60;92.70;;;;;;6183863;23;20000;-72
2023/05/03 01:03:16;;;;;;;4.10;1.17;;;7.50;92.70;;;;;;6210541;23;20489;-72
2023/05/03 01:06:04;;;;;;;4.93;1.00;;;7.50;92.80;;;;;;6211225;23;20001;-72
2023/05/03 01:08:39;;;;;;;2.80;1.00;;;7.50;92.90;;;;;;6183787;23;20031;-72
2023/05/03 01:11:16;;;;;;;3.77;0.90;;;7.50;93.00;;;;;;6184153;23;20407;-72
2023/05/03 01:14:06;;;;;;;2.50;1.30;;;7.50;93.10;;;;;;6211260;23;20047;-72
2023/05/03 01:16:52;;;;;;;4.13;1.20;;;7.40;93.30;;;;;;6189011;23;20082;-72
2023/05/03 01:19:24;;;;;;;5.07;0.90;;;7.40;93.40;;;;;;6210672;23;20142;-72
2023/05/03 01:22:01;;;;;;;4.77;1.20;;;7.40;93.40;;;;;;6211101;23;20072;-72
2023/05/03 01:24:30;;;;;;;2.80;1.70;;;7.30;93.50;;;;;;6210396;23;20334;-72
2023/05/03 01:26:58;;;;;;;5.03;1.47;;;7.30;93.60;;;;;;6211248;23;20028;-72
2023/05/03 01:29:23;;;;;;;2.73;1.37;;;7.30;93.60;;;;;;6183103;23;20009;-72
2023/05/03 01:32:02;;;;;;;11.60;1.43;;;7.30;93.80;;;;;;6184410;23;20093;-72
2023/05/03 01:34:50;;;;;;;7.57;0.93;;;7.30;94.00;;;;;;6210391;23;20012;-72
2023/05/03 01:37:17;;;;;;;7.73;1.23;;;7.20;94.00;;;;;;6210370;23;20005;-72
2023/05/03 01:39:52;;;;;;;5.03;1.03;;;7.20;94.10;;;;;;6211068;23;20000;-72
2023/05/03 01:42:19;;;;;;;6.20;1.73;;;7.20;94.30;;;;;;6210120;23;20029;-72
2023/05/03 01:44:46;;;;;;;4.60;1.60;;;7.10;94.30;;;;;;6210448;23;20326;-72
2023/05/03 01:47:13;;;;;;;4.57;1.67;;;7.10;94.40;;;;;;6210185;23;20062;-73
2023/05/03 01:49:39;;;;;;;8.10;1.70;;;7.10;94.50;;;;;;6210989;23;20005;-72
2023/05/03 01:52:05;;;;;;;3.67;1.60;;;7.10;94.80;;;;;;6210707;23;20009;-72
2023/05/03 01:54:31;;;;;;;3.83;1.93;;;7.10;94.90;;;;;;6210539;23;20001;-72
2023/05/03 01:56:56;;;;;;;5.27;2.03;;;7.10;95.00;;;;;;6210697;23;20019;-72
2023/05/03 01:59:22;;;;;;;5.50;1.57;;;7.00;95.10;;;;;;6209748;23;20009;-72
2023/05/03 02:01:47;;;;;;;6.97;1.67;;;7.00;95.30;;;;;;6210689;23;20080;-72
2023/05/03 02:04:13;;;;;;;3.93;1.40;;;7.00;95.50;;;;;;6210197;23;20001;-72
2023/05/03 02:06:38;;;;;;;5.83;1.90;;;7.00;95.60;;;;;;6210645;23;20004;-72
2023/05/03 02:09:04;;;;;;;3.93;1.47;;;7.00;95.80;;;;;;6210781;23;20011;-72
2023/05/03 02:11:29;;;;;;;8.07;2.53;;;6.90;95.80;;;;;;6210455;23;20071;-72
2023/05/03 02:13:55;;;;;;;2.27;1.50;;;6.90;95.80;;;;;;6210230;23;20024;-72
2023/05/03 02:16:21;;;;;;;3.53;1.70;;;6.90;95.90;;;;;;6183218;23;20028;-72
2023/05/03 02:18:46;;;;;;;3.53;1.63;;;6.90;96.00;;;;;;6210827;23;20005;-72
2023/05/03 02:21:12;;;;;;;7.33;1.60;;;6.90;96.00;;;;;;6210058;23;20004;-72
2023/05/03 02:23:37;;;;;;;5.83;1.70;;;6.80;96.10;;;;;;6184044;23;20012;-72
2023/05/03 02:26:03;;;;;;;5.17;1.63;;;6.90;96.20;;;;;;6183880;23;20013;-72
2023/05/03 02:28:29;;;;;;;8.80;2.00;;;6.80;96.20;;;;;;6209631;23;20000;-72
2023/05/03 02:30:55;;;;;;;4.10;1.97;;;6.80;96.30;;;;;;6210635;23;20460;-72
2023/05/03 02:33:21;;;;;;;10.83;2.00;;;6.80;96.70;;;;;;6210077;23;20005;-72
2023/05/03 02:35:46;;;;;;;5.20;2.40;;;6.80;96.80;;;;;;6210618;23;20252;-72
2023/05/03 02:38:12;;;;;;;4.80;1.97;;;6.80;97.00;;;;;;6210219;23;20071;-72
2023/05/03 02:40:37;;;;;;;4.87;1.87;;;6.80;97.10;;;;;;6183773;23;20009;-72
2023/05/03 02:43:03;;;;;;;4.10;1.67;;;6.70;97.20;;;;;;6210067;23;20023;-72
2023/05/03 02:45:29;;;;;;;6.87;2.00;;;6.80;97.30;;;;;;6210042;23;20008;-72
2023/05/03 02:47:54;;;;;;;4.90;2.00;;;6.70;97.30;;;;;;6210691;23;20031;-72
2023/05/03 02:50:20;;;;;;;2.43;1.90;;;6.70;97.40;;;;;;6209965;23;20267;-72
2023/05/03 02:52:45;;;;;;;5.63;2.50;;;6.70;97.40;;;;;;6210870;23;20004;-72
2023/05/03 02:55:11;;;;;;;5.97;3.43;;;6.70;97.70;;;;;;6209674;23;20048;-73
2023/05/03 02:57:37;;;;;;;5.73;2.10;;;6.60;97.70;;;;;;6209862;23;20000;-72
2023/05/03 03:00:04;;;;;;;6.33;1.93;;;6.60;97.80;;;;;;6210248;23;20302;-72
2023/05/03 03:02:30;;;;;;;4.67;1.50;;;6.60;98.00;;;;;;6183383;23;20008;-72
2023/05/03 03:04:55;;;;;;;2.47;1.60;;;6.60;98.00;;;;;;6210496;23;19996;-72
2023/05/03 03:07:21;;;;;;;6.37;2.33;;;6.60;98.10;;;;;;6183878;23;20104;-72
2023/05/03 03:09:46;;;;;;;3.97;1.50;;;6.50;98.10;;;;;;6212360;23;20004;-72
2023/05/03 03:12:12;;;;;;;6.97;1.70;;;6.50;98.10;;;;;;6211424;23;20005;-72
2023/05/03 03:14:37;;;;;;;5.40;1.77;;;6.50;98.10;;;;;;6212317;23;20001;-72
2023/05/03 03:17:07;;;;;;;3.47;1.60;;;6.50;98.10;;;;;;6212038;23;20046;-72
2023/05/03 03:19:33;;;;;;;7.73;2.30;;;6.50;98.20;;;;;;6212052;23;20003;-72
2023/05/03 03:21:58;;;;;;;5.63;1.83;;;6.40;98.20;;;;;;6212434;23;20004;-72
2023/05/03 03:24:24;;;;;;;6.67;2.20;;;6.40;98.20;;;;;;6184752;23;20011;-72
2023/05/03 03:26:49;;;;;;;3.53;1.53;;;6.40;98.30;;;;;;6211328;23;20001;-72
2023/05/03 03:29:15;;;;;;;5.27;2.20;;;6.40;98.40;;;;;;6211005;23;20000;-72
2023/05/03 03:31:41;;;;;;;4.80;1.80;;;6.40;98.50;;;;;;6210800;23;20005;-72
2023/05/03 03:34:06;;;;;;;5.60;1.90;;;6.30;98.40;;;;;;6209438;23;20012;-72
2023/05/03 03:36:32;;;;;;;2.53;1.67;;;6.30;98.40;;;;;;6184112;23;20020;-72
2023/05/03 03:38:57;;;;;;;5.27;1.93;;;6.30;98.40;;;;;;6212189;23;20462;-72
2023/05/03 03:41:23;;;;;;;6.17;1.83;;;6.30;98.40;;;;;;6210953;23;20012;-72
2023/05/03 03:43:49;;;;;;;9.23;1.87;;;6.30;98.50;;;;;;6211948;23;20075;-72
2023/05/03 03:46:16;;;;;;;6.37;2.37;;;6.20;98.60;;;;;;6184732;23;20001;-72
2023/05/03 03:48:41;;;;;;;4.53;2.10;;;6.20;98.80;;;;;;6211961;23;20028;-72
2023/05/03 03:51:07;;;;;;;4.17;2.17;;;6.20;98.90;;;;;;6184837;23;20422;-72
2023/05/03 03:53:32;;;;;;;4.80;2.17;;;6.20;99.00;;;;;;6211536;23;20322;-72
2023/05/03 03:55:58;;;;;;;8.07;2.53;;;6.20;99.00;;;;;;6211442;23;20094;-72
2023/05/03 03:58:23;;;;;;;9.40;2.77;;;6.20;99.10;;;;;;6211262;23;20001;-72
2023/05/03 04:00:50;;;;;;;10.63;2.50;;;6.20;99.10;;;;;;6185169;23;20087;-72
2023/05/03 04:03:16;;;;;;;5.63;3.07;;;6.20;99.20;;;;;;6211122;23;20008;-72
2023/05/03 04:05:41;;;;;;;3.40;2.33;;;6.10;99.30;;;;;;6211856;23;20004;-72
2023/05/03 04:08:07;;;;;;;4.70;2.53;;;6.10;99.30;;;;;;6211193;23;20027;-72
2023/05/03 04:10:32;;;;;;;6.10;2.50;;;6.10;99.20;;;;;;6211514;23;20437;-72
2023/05/03 04:12:58;;;;;;;5.93;2.40;;;6.10;99.70;;;;;;6211805;23;20334;-72
2023/05/03 04:15:23;;;;;;;6.07;3.50;;;6.10;99.50;;;;;;6210936;23;20012;-72
2023/05/03 04:17:49;;;;;;;4.73;2.87;;;6.10;99.60;;;;;;6211575;23;19997;-72
2023/05/03 04:20:16;;;;;;;10.97;3.53;;;6.10;99.70;;;;;;6183918;23;20007;-72
2023/05/03 04:22:42;;;;;;;6.57;3.13;;;6.10;99.80;;;;;;6211023;23;20345;-72
2023/05/03 04:25:12;;;;;;;5.87;3.00;;;6.10;99.80;;;;;;6211373;23;20020;-72
2023/05/03 04:27:37;;;;;;;4.37;2.50;;;6.10;99.90;;;;;;6211619;23;20422;-72
2023/05/03 04:30:03;;;;;;;5.83;2.70;;;6.10;99.80;;;;;;6211539;23;20031;-72
2023/05/03 04:32:36;;;;;;;5.97;2.47;;;6.10;99.80;;;;;;6210625;23;20008;-72
2023/05/03 04:35:09;;;;;;;6.73;2.67;;;6.10;99.80;;;;;;6211475;23;19997;-72
2023/05/03 04:37:36;;;;;;;6.45;2.67;;;6.10;99.90;;;;;;6210804;23;20594;-72
2023/05/03 04:40:06;;;;;;;8.80;3.07;;;6.10;99.90;;;;;;6184656;23;20004;-71
2023/05/03 04:42:32;;;;;;;7.07;3.30;;;6.10;99.90;;;;;;6184196;23;20103;-72
2023/05/03 04:44:57;;;;;;;6.60;3.30;;;6.10;99.90;;;;;;6184714;23;20082;-72
2023/05/03 04:47:24;;;;;;;7.77;2.87;;;6.10;99.90;;;;;;6210302;23;20103;-72
2023/05/03 04:49:50;;;;;;;4.13;2.27;;;6.10;99.90;;;;;;6184718;23;20011;-72
2023/05/03 04:52:15;;;;;;;7.33;3.30;;;6.10;99.90;;;;;;6210217;23;20448;-72
2023/05/03 04:54:41;;;;;;;6.30;2.80;;;6.10;99.90;;;;;;6184720;23;20183;-72
2023/05/03 04:57:09;;;;;;;4.57;2.50;;;6.20;99.90;;;;;;6211350;23;20082;-72
2023/05/03 04:59:34;;;;;;;4.93;2.50;;;6.20;99.90;;;;;;6211138;23;20012;-73
2023/05/03 05:02:00;;;;;;;4.27;2.53;;;6.20;99.90;;;;;;6211274;23;20146;-72
2023/05/03 05:04:25;;;;;;;6.50;2.97;;;6.30;99.90;;;;;;6184048;23;20005;-72
2023/05/03 05:06:53;;;;;;;5.13;3.30;;;6.30;99.90;;;;;;6184177;23;20000;-72
2023/05/03 05:09:22;;;;;;;3.90;2.37;;;6.30;99.90;;;;;;6210548;23;20036;-73
2023/05/03 05:11:48;;;;;;;4.83;3.00;;;6.40;99.90;;;;;;6211227;23;20005;-72
2023/05/03 05:14:14;;;;;;;4.97;2.37;;;6.40;99.90;;;;;;6210606;23;20004;-72
2023/05/03 05:16:40;;;;;;;5.83;2.60;;;6.50;99.90;;;;;;6211147;23;20066;-72
2023/05/03 05:19:06;;;;;;;4.73;1.90;;;6.50;99.90;;;;;;6211067;23;20048;-72
2023/05/03 05:21:32;;;;;;;7.27;2.60;;;6.50;99.90;;;;;;6210159;23;19993;-72
2023/05/03 05:23:58;;;;;;;6.23;2.57;;;6.60;99.90;;;;;;6211026;23;20004;-72
2023/05/03 05:26:26;;;;;;;4.57;2.17;;;6.70;99.90;;;;;;6183714;23;20012;-72
2023/05/03 05:28:51;;;;;;;5.60;2.83;;;6.70;99.90;;;;;;6211126;23;20001;-72
2023/05/03 05:31:17;;;;;;;6.13;2.97;;;6.80;99.90;;;;;;6183474;23;20009;-72
2023/05/03 05:33:43;;;;;;;6.60;2.77;;;6.70;99.90;;;;;;6211061;23;20423;-72
2023/05/03 05:36:09;;;;;;;6.63;2.57;;;6.90;99.90;;;;;;6183213;23;20009;-72
2023/05/03 05:38:35;;;;;;;6.33;2.60;;;7.00;99.90;;;;;;6210891;23;20451;-72
2023/05/03 05:41:01;;;;;;;6.47;2.53;;;7.00;99.90;;;;;;6210733;23;20397;-72
2023/05/03 05:43:27;;;;;;;7.87;2.70;;;7.10;99.90;;;;;;6210440;23;20004;-72
2023/05/03 05:45:52;;;;;;;7.00;2.53;;;7.20;99.90;;;;;;6210881;23;20000;-72
2023/05/03 05:48:18;;;;;;;5.90;2.33;;;7.20;99.90;;;;;;6183631;23;20334;-72
2023/05/03 05:50:44;;;;;;;3.00;2.03;;;7.30;99.90;;;;;;6210182;23;20008;-72
2023/05/03 05:53:10;;;;;;;8.80;3.10;;;7.40;99.90;;;;;;6183759;23;20004;-72
2023/05/03 05:55:36;;;;;;;8.43;2.57;;;7.40;99.90;;;;;;6210879;23;20028;-72
2023/05/03 05:58:01;;;;;;;5.13;2.43;;;7.50;99.90;;;;;;6210855;23;20008;-72
2023/05/03 06:00:27;;;;;;;5.15;2.35;;;7.60;99.90;;;;;;6209942;23;20030;-72
2023/05/03 06:02:53;;;;;;;5.13;2.30;;;7.70;99.90;;;;;;6210802;23;20051;-72
2023/05/03 06:05:19;;;;;;;5.90;2.97;;;7.70;99.90;;;;;;6209515;23;20034;-72
2023/05/03 06:07:45;;;;;;;7.53;2.70;;;7.80;99.90;;;;;;6210758;23;20001;-73
2023/05/03 06:10:10;;;;;;;6.93;2.90;;;7.80;99.90;;;;;;6210000;23;20087;-73
2023/05/03 06:12:36;;;;;;;4.60;2.60;;;7.90;99.90;;;;;;6184468;23;20004;-73
2023/05/03 06:15:02;;;;;;;7.23;2.73;;;8.00;99.80;;;;;;6210672;23;20024;-73
2023/05/03 06:17:28;;;;;;;5.03;2.57;;;8.00;99.80;;;;;;6210286;23;20083;-73
2023/05/03 06:19:53;;;;;;;7.20;3.17;;;8.10;99.60;;;;;;6183516;23;20028;-72
2023/05/03 06:22:19;;;;;;;6.03;2.60;;;8.20;99.10;;;;;;6210637;23;20029;-72
2023/05/03 06:24:45;;;;;;;7.13;2.50;;;8.20;98.70;;;;;;6211503;23;19996;-70
2023/05/03 06:27:10;;;;;;;6.03;2.30;;;8.30;98.20;;;;;;6210861;23;20020;-71
2023/05/03 06:29:36;;;;;;;8.27;2.17;;;8.30;98.00;;;;;;6184036;23;20009;-72
2023/05/03 06:32:01;;;;;;;6.00;2.23;;;8.40;97.80;;;;;;6210765;23;20011;-71
2023/05/03 06:34:27;;;;;;;5.87;2.30;;;8.40;97.60;;;;;;6209554;23;20516;-72
2023/05/03 06:36:54;;;;;;;7.07;2.00;;;8.50;97.30;;;;;;6210960;23;20004;-71
2023/05/03 06:39:19;;;;;;;4.63;1.63;;;8.60;97.20;;;;;;6184154;23;20032;-71
2023/05/03 06:41:45;;;;;;;7.00;2.40;;;8.60;97.00;;;;;;6211199;23;20338;-72
2023/05/03 06:44:11;;;;;;;4.17;1.73;;;8.70;96.50;;;;;;6211870;23;20001;-72
2023/05/03 06:46:36;;;;;;;4.68;1.52;;;8.70;96.10;;;;;;6212610;23;20059;-72
2023/05/03 06:49:02;;;;;;;7.90;1.80;;;8.70;95.70;;;;;;6185274;23;20080;-73
2023/05/03 06:51:29;;;;;;;7.47;1.98;;;8.70;95.60;;;;;;6184454;23;20338;-72
2023/05/03 06:53:56;;;;;;;4.93;1.97;;;8.80;95.70;;;;;;6211630;23;20004;-72
2023/05/03 06:56:22;;;;;;;4.80;1.35;;;8.90;95.50;;;;;;6211658;23;20008;-72
2023/05/03 06:58:48;;;;;;;5.63;2.22;;;8.90;95.50;;;;;;6184223;23;20028;-73
2023/05/03 07:01:14;;;;;;;8.57;1.95;;;9.00;95.40;;;;;;6210949;23;20000;-72
2023/05/03 07:03:40;;;;;;;5.50;1.20;;;9.00;95.40;;;;;;6211393;23;20127;-72
2023/05/03 07:06:05;;;;;;;5.57;1.93;;;9.10;95.30;;;;;;6209929;23;20007;-72
2023/05/03 07:08:31;;;;;;;7.32;1.90;;;9.20;94.90;;;;;;6208928;23;20004;-72
2023/05/03 07:11:00;;;;;;;6.20;1.87;;;9.20;94.90;;;;;;6209878;23;20011;-72
2023/05/03 07:13:25;;;;;;;5.55;2.15;;;9.30;94.70;;;;;;6211048;23;20005;-72
2023/05/03 07:15:51;;;;;;;7.60;1.98;;;9.30;94.80;;;;;;6211295;23;20084;-73
2023/05/03 07:18:16;;;;;;;3.30;1.48;;;9.40;94.50;;;;;;6210966;23;20076;-72
2023/05/03 07:20:42;;;;;;;5.75;1.63;;;9.50;94.00;;;;;;6210581;23;20035;-72
2023/05/03 07:23:08;;;;;;;4.95;1.65;;;9.60;94.10;;;;;;6211458;23;20383;-73
2023/05/03 07:25:33;;;;;;;4.13;1.17;;;9.60;94.00;;;;;;6211561;23;20005;-72
2023/05/03 07:27:59;;;;;;;3.20;1.42;;;9.70;94.10;;;;;;6211808;23;20321;-72
2023/05/03 07:30:25;;;;;;;5.90;1.20;;;9.80;93.80;;;;;;6209065;23;20071;-72
2023/05/03 07:32:51;;;;;;;3.20;1.35;;;9.90;93.70;;;;;;6210005;23;20007;-72
2023/05/03 07:35:18;;;;;;;2.42;1.20;;;10.00;93.60;;;;;;6211142;23;20032;-72
2023/05/03 07:37:43;;;;;;;4.78;1.45;;;10.10;93.40;;;;;;6211838;23;20000;-73
2023/05/03 07:40:10;;;;;;;5.47;1.83;;;10.10;93.20;;;;;;6211425;23;20035;-72
2023/05/03 07:42:36;;;;;;;3.53;1.55;;;10.20;93.00;;;;;;6210553;23;20346;-72
2023/05/03 07:45:01;;;;;;;7.18;2.10;;;10.30;92.90;;;;;;6211743;23;20000;-73
2023/05/03 07:47:27;;;;;;;3.67;1.45;;;10.40;92.80;;;;;;6210471;23;20508;-72
2023/05/03 07:49:53;;;;;;;4.90;1.73;;;10.40;92.70;;;;;;6211080;23;20008;-73
2023/05/03 07:52:19;;;;;;;4.32;1.88;;;10.50;92.80;;;;;;6209483;23;20104;-73
2023/05/03 07:54:44;;;;;;;6.55;1.98;;;10.60;92.90;;;;;;6211614;23;20035;-72
2023/05/03 07:57:15;;;;;;;6.72;2.20;;;10.70;92.80;;;;;;6211238;23;20016;-72
2023/05/03 07:59:43;;;;;;;7.63;1.65;;;10.80;92.30;;;;;;6211355;23;20465;-72
2023/05/03 08:02:09;;;;;;;3.05;1.88;;;10.90;92.40;;;;;;6183872;23;20008;-72
2023/05/03 08:04:34;;;;;;;2.92;1.35;;;11.00;92.30;;;;;;6209739;23;19997;-72
2023/05/03 08:07:01;;;;;;;10.18;2.55;;;11.00;92.20;;;;;;6211405;23;20032;-72
2023/05/03 08:09:27;;;;;;;12.23;2.22;;;11.10;91.90;;;;;;6210920;23;20521;-72
2023/05/03 08:11:54;;;;;;;5.80;2.10;;;11.10;91.80;;;;;;6211472;23;20001;-72
2023/05/03 08:14:20;;;;;;;4.78;1.77;;;11.20;91.50;;;;;;6183033;23;20417;-72
2023/05/03 08:16:46;;;;;;;6.45;1.30;;;11.30;91.20;;;;;;6183912;23;20009;-72
2023/05/03 08:19:11;;;;;;;4.70;1.90;;;11.30;90.40;;;;;;6210444;23;20003;-72
2023/05/03 08:21:37;;;;;;;7.15;1.40;;;11.30;90.40;;;;;;6211695;23;20087;-72
2023/05/03 08:24:05;;;;;;;7.90;2.67;;;11.30;90.10;;;;;;6209988;23;20421;-72
2023/05/03 08:26:31;;;;;;;5.93;1.35;;;11.30;89.60;;;;;;6211245;23;20027;-71
2023/05/03 08:28:57;;;;;;;4.25;1.38;;;11.40;89.90;;;;;;6184744;23;20427;-71
2023/05/03 08:31:23;;;;;;;2.65;1.52;;;11.40;89.60;;;;;;6210235;23;20031;-72
2023/05/03 08:33:49;;;;;;;6.38;1.50;;;11.50;89.20;;;;;;6209703;23;20012;-71
2023/05/03 08:36:14;;;;;;;6.03;1.83;;;11.50;88.20;;;;;;6207969;23;20087;-72
2023/05/03 08:38:40;;;;;;;9.88;1.98;;;11.50;87.70;;;;;;6183111;23;20032;-72
2023/05/03 08:41:20;;;;;;;6.88;1.70;;;11.50;88.00;;;;;;6210999;23;20012;-72
2023/05/03 08:43:51;;;;;;;4.60;1.50;;;11.50;87.90;;;;;;6210207;23;20137;-72
2023/05/03 08:46:17;;;;;;;4.68;1.73;;;11.50;87.80;;;;;;6209173;23;19997;-72
2023/05/03 08:48:46;;;;;;;3.55;1.52;;;11.60;87.20;;;;;;6210656;23;20084;-72
2023/05/03 08:51:13;;;;;;;5.22;1.95;;;11.70;87.30;;;;;;6210366;23;20008;-72
2023/05/03 08:53:38;;;;;;;4.47;1.95;;;11.70;86.60;;;;;;6210478;23;20042;-72
2023/05/03 08:56:08;;;;;;;4.05;1.40;;;11.80;86.80;;;;;;6210748;23;20454;-72
2023/05/03 08:58:37;;;;;;;3.92;1.70;;;11.80;86.90;;;;;;6209116;23;19992;-71
2023/05/03 09:01:05;;;;;;;3.60;1.70;;;11.90;86.90;;;;;;6209999;23;20031;-72
2023/05/03 09:03:31;;;;;;;4.57;1.88;;;11.90;87.20;;;;;;6209739;23;20090;-72
2023/05/03 09:06:00;;;;;;;4.20;2.15;;;12.00;85.90;;;;;;6210657;23;20291;-72
2023/05/03 09:08:27;;;;;;;6.53;1.90;;;11.90;85.40;;;;;;6181656;23;20671;-72
2023/05/03 09:10:52;;;;;;;3.92;1.45;;;12.00;85.80;;;;;;6210259;23;20418;-72
2023/05/03 09:13:18;;;;;;;7.28;2.20;;;12.10;85.90;;;;;;6209489;23;20009;-72
2023/05/03 09:15:53;;;;;;;5.00;2.15;;;12.10;85.50;;;;;;6210852;23;20005;-72
2023/05/03 09:18:19;;;;;;;5.82;2.05;;;12.20;85.60;;;;;;6209890;23;20000;-72
2023/05/03 09:20:52;;;;;;;6.95;1.90;;;12.10;85.60;;;;;;6209856;23;20003;-72
2023/05/03 09:23:28;;;;;;;5.35;2.25;;;12.30;85.50;;;;;;6209299;23;20001;-71
2023/05/03 09:25:54;;;;;;;4.90;2.13;;;12.40;85.40;;;;;;6210336;23;20000;-72
2023/05/03 09:28:20;;;;;;;9.63;2.00;;;12.40;85.30;;;;;;6181857;23;20016;-72
2023/05/03 09:30:47;;;;;;;6.43;2.42;;;12.40;84.20;;;;;;6208040;23;20138;-71
2023/05/03 09:33:19;;;;;;;5.82;3.10;;;12.40;83.80;;;;;;6209333;23;20039;-72
2023/05/03 09:35:59;;;;;;;5.03;2.22;;;12.40;83.40;;;;;;6209550;23;20016;-72
2023/05/03 09:38:37;;;;;;;4.65;2.50;;;12.40;84.00;;;;;;6209236;23;20005;-72
2023/05/03 09:41:06;;;;;;;5.82;2.13;;;12.50;83.90;;;;;;6208871;23;20035;-71
2023/05/03 09:43:32;;;;;;;5.50;2.40;;;12.50;84.10;;;;;;6210613;23;20446;-72
2023/05/03 09:46:09;;;;;;;4.75;1.98;;;12.60;83.90;;;;;;6210247;23;20095;-72
2023/05/03 09:48:36;;;;;;;4.55;2.22;;;12.70;83.40;;;;;;6208953;23;20043;-72
2023/05/03 09:51:04;;;;;;;6.15;2.90;;;12.80;83.60;;;;;;6210014;23;20004;-72
2023/05/03 09:53:31;;;;;;;6.53;2.78;;;12.80;82.50;;;;;;6207536;23;20035;-72
2023/05/03 09:56:01;;;;;;;5.10;2.17;;;12.80;82.20;;;;;;6209996;23;20076;-71
2023/05/03 09:58:29;;;;;;;4.82;3.88;;;12.90;83.00;;;;;;6209280;23;20418;-71
2023/05/03 10:00:56;;;;;;;7.10;2.55;;;12.90;83.20;;;;;;6209857;23;20016;-72
2023/05/03 10:03:31;;;;;;;3.65;1.65;;;12.90;82.40;;;;;;6208056;23;20055;-71
2023/05/03 10:06:00;;;;;;;2.90;2.13;;;13.00;82.50;;;;;;6209151;23;20378;-71
2023/05/03 10:08:44;;;;;;;7.82;2.20;;;13.10;81.60;;;;;;6208969;23;20082;-71
2023/05/03 10:11:14;;;;;;;4.40;2.28;;;13.10;81.60;;;;;;6207806;23;20091;-71
2023/05/03 10:13:41;;;;;;;4.38;2.42;;;13.30;81.70;;;;;;6209172;23;20066;-71
2023/05/03 10:16:11;;;;;;;3.83;2.20;;;13.40;82.20;;;;;;6210453;23;20078;-71
2023/05/03 10:18:44;;;;;;;5.82;2.28;;;13.50;81.30;;;;;;6212503;23;20497;-71
2023/05/03 10:21:20;;;;;;;5.35;2.15;;;13.60;81.30;;;;;;6185528;23;20551;-72
2023/05/03 10:24:15;;;;;;;5.78;2.75;;;13.60;80.50;;;;;;6212606;23;20000;-72
2023/05/03 10:26:46;;;;;;;7.20;2.72;;;13.70;79.80;;;;;;6179453;23;20012;-72
2023/05/03 10:29:33;;;;;;;5.88;2.15;;;13.60;80.10;;;;;;6211819;23;20004;-72
2023/05/03 10:32:31;;;;;;;5.28;2.00;;;13.70;79.70;;;;;;6212352;23;20081;-71
2023/05/03 10:35:09;;;;;;;3.30;2.28;;;13.80;79.60;;;;;;6199231;23;20004;-71
2023/05/03 10:37:36;;;;;;;7.60;2.53;;;13.90;79.30;;;;;;6183951;23;20025;-71
2023/05/03 10:40:06;;;;;;;8.35;3.30;;;13.90;79.30;;;;;;6211561;23;19996;-71
2023/05/03 10:42:32;;;;;;;3.90;2.40;;;14.00;79.00;;;;;;6184138;23;20018;-71
2023/05/03 10:45:01;;;;;;;3.35;2.28;;;14.00;78.60;;;;;;6212291;23;19993;-71
2023/05/03 10:47:27;;;;;;;4.72;2.03;;;14.00;78.60;;;;;;6209827;23;20070;-71
2023/05/03 10:50:13;;;;;;;5.45;2.25;;;14.00;77.90;;;;;;6212211;23;20004;-72
2023/05/03 10:52:39;;;;;;;3.70;2.15;;;14.00;77.80;;;;;;6211682;23;20020;-70
2023/05/03 10:55:09;;;;;;;5.35;2.75;;;14.10;78.40;;;;;;6211514;23;20165;-72
2023/05/03 10:57:36;;;;;;;6.85;2.78;;;14.20;78.40;;;;;;6210139;23;20023;-72
2023/05/03 11:00:11;;;;;;;5.00;2.00;;;14.10;75.90;;;;;;6210910;23;20063;-72
2023/05/03 11:02:46;;;;;;;4.30;2.10;;;14.10;76.10;;;;;;6211516;23;20007;-72
2023/05/03 11:05:13;;;;;;;5.95;2.17;;;14.00;76.80;;;;;;6211710;23;20005;-73
2023/05/03 11:07:39;;;;;;;3.22;1.88;;;14.00;77.50;;;;;;6211405;23;20478;-72
2023/05/03 11:10:18;;;;;;;4.35;2.58;;;14.00;77.60;;;;;;6209374;23;20025;-71
2023/05/03 11:12:44;;;;;;;4.07;2.30;;;14.20;77.70;;;;;;6210688;23;20485;-70
2023/05/03 11:15:11;;;;;;;5.88;2.33;;;14.30;77.70;;;;;;6210398;23;19996;-71
2023/05/03 11:17:37;;;;;;;3.95;1.95;;;14.40;77.00;;;;;;6211259;23;20051;-71
2023/05/03 11:20:08;;;;;;;3.80;2.63;;;14.40;76.80;;;;;;6208340;23;20096;-71
2023/05/03 11:22:35;;;;;;;3.45;1.48;;;14.40;76.80;;;;;;6210141;23;20083;-71
2023/05/03 11:25:01;;;;;;;3.15;1.95;;;14.50;76.60;;;;;;6183274;23;20275;-71
2023/05/03 11:27:27;;;;;;;4.22;1.65;;;14.50;76.70;;;;;;6209993;23;20087;-71
2023/05/03 11:29:57;;;;;;;4.32;1.73;;;14.50;75.70;;;;;;6210819;23;20027;-71
2023/05/03 11:32:29;;;;;;;4.70;3.05;;;14.50;75.60;;;;;;6209027;23;20535;-71
2023/05/03 11:34:55;;;;;;;3.08;1.80;;;14.50;75.50;;;;;;6211993;23;20007;-72
2023/05/03 11:37:21;;;;;;;2.50;1.85;;;14.60;75.30;;;;;;6211090;23;20059;-71
2023/05/03 11:39:47;;;;;;;3.72;1.70;;;14.50;75.10;;;;;;6210303;23;20008;-71
2023/05/03 11:42:12;;;;;;;4.10;2.00;;;14.60;75.20;;;;;;6182671;23;20055;-71
2023/05/03 11:44:38;;;;;;;4.20;2.13;;;14.60;75.60;;;;;;6210736;23;20000;-71
2023/05/03 11:47:04;;;;;;;4.43;2.33;;;14.60;74.30;;;;;;6211037;23;20008;-71
2023/05/03 11:49:30;;;;;;;5.55;2.10;;;14.60;74.60;;;;;;6211082;23;20075;-71
2023/05/03 11:51:55;;;;;;;7.60;3.30;;;14.60;75.30;;;;;;6210691;23;20008;-71
2023/05/03 11:54:22;;;;;;;5.80;2.63;;;14.70;75.00;;;;;;6209378;23;20000;-72
2023/05/03 11:56:47;;;;;;;4.60;2.67;;;14.80;75.60;;;;;;6211537;23;20092;-71
2023/05/03 11:59:13;;;;;;;4.43;2.13;;;14.80;75.70;;;;;;6211236;23;20020;-72
2023/05/03 12:01:41;;;;;;;5.93;2.15;;;14.80;74.10;;;;;;6211861;23;20004;-72
2023/05/03 12:04:08;;;;;;;4.97;2.15;;;14.80;74.20;;;;;;6208697;23;20426;-72
2023/05/03 12:06:35;;;;;;;4.40;2.03;;;14.80;74.60;;;;;;6211209;23;20000;-72
2023/05/03 12:09:02;;;;;;;3.92;2.22;;;14.90;74.60;;;;;;6210691;23;20008;-71
2023/05/03 12:11:27;;;;;;;6.03;2.70;;;14.90;74.10;;;;;;6210262;23;20005;-72
2023/05/03 12:14:01;;;;;;;6.03;3.00;;;14.90;73.90;;;;;;6209778;23;20080;-72
2023/05/03 12:16:27;;;;;;;5.30;2.35;;;15.00;73.70;;;;;;6210194;23;20008;-72
2023/05/03 12:19:01;;;;;;;4.10;2.88;;;15.00;73.50;;;;;;6211546;23;19997;-72
2023/05/03 12:21:47;;;;;;;4.55;2.08;;;15.00;73.50;;;;;;6210031;23;20008;-72
2023/05/03 12:24:18;;;;;;;7.30;2.50;;;15.00;72.30;;;;;;6210700;23;20403;-72
2023/05/03 12:26:46;;;;;;;5.80;2.50;;;14.90;73.00;;;;;;6209452;23;20080;-72
2023/05/03 12:29:12;;;;;;;6.63;2.78;;;15.00;72.10;;;;;;6209515;23;20502;-72
2023/05/03 12:31:38;;;;;;;14.75;2.47;;;15.00;71.80;;;;;;6210494;23;20001;-72
2023/05/03 12:34:03;;;;;;;6.43;2.50;;;15.00;72.20;;;;;;6210443;23;20079;-72
2023/05/03 12:36:32;;;;;;;4.93;2.83;;;15.00;71.90;;;;;;6210480;23;20426;-71
2023/05/03 12:38:59;;;;;;;4.97;2.47;;;15.10;71.60;;;;;;6211255;23;20346;-73
2023/05/03 12:41:26;;;;;;;2.97;2.42;;;15.10;71.70;;;;;;6183365;23;20074;-72
2023/05/03 12:43:52;;;;;;;5.30;2.95;;;15.10;71.90;;;;;;6211067;23;20430;-71
2023/05/03 12:46:18;;;;;;;3.63;2.50;;;15.20;71.40;;;;;;6210115;23;20031;-73
2023/05/03 12:48:44;;;;;;;4.50;2.53;;;15.20;71.20;;;;;;6210408;23;20059;-72
2023/05/03 12:51:10;;;;;;;4.43;2.90;;;15.20;71.20;;;;;;6210418;23;20000;-72
2023/05/03 12:53:35;;;;;;;4.63;2.42;;;15.30;72.10;;;;;;6184866;23;19996;-73
2023/05/03 12:56:01;;;;;;;5.72;2.28;;;15.40;72.00;;;;;;6211715;23;20070;-73